Time;durP1;ratioP1;P1;durP2;ratioP2;P2;SDS_P1;SDS_P2;PMS_P1;PMS_P2;Temp;Humidity;BMP_temperature;BMP_pressure;BME280_temperature;BME280_humidity;BME280_pressure;Samples;Min_cycle;Max_cycle;Signal;HPM_P1;HPM_P2
2024/01/14 00:02:11;;;;;;;35.03;13.35;;;4.90;99.90;;;;;;4995030;28;20030;-82
2024/01/14 00:04:37;;;;;;;33.35;11.88;;;4.90;99.90;;;;;;4994860;28;20034;-80
2024/01/14 00:07:03;;;;;;;34.58;12.73;;;4.80;99.90;;;;;;5009888;28;20021;-79
2024/01/14 00:09:28;;;;;;;29.30;10.85;;;4.80;99.90;;;;;;5001823;28;20026;-79
2024/01/14 00:11:54;;;;;;;37.10;11.45;;;4.80;99.90;;;;;;4994695;28;20057;-79
2024/01/14 00:14:20;;;;;;;31.92;12.65;;;4.90;99.90;;;;;;4994583;28;20030;-78
2024/01/14 00:16:45;;;;;;;29.15;11.13;;;4.90;99.90;;;;;;4995968;28;20034;-80
2024/01/14 00:19:11;;;;;;;35.83;11.77;;;5.00;99.90;;;;;;4994834;28;20426;-81
2024/01/14 00:21:37;;;;;;;31.15;11.23;;;5.00;99.90;;;;;;4994393;28;20061;-81
2024/01/14 00:24:03;;;;;;;44.22;12.07;;;5.10;99.90;;;;;;4994744;28;20023;-80
2024/01/14 00:26:30;;;;;;;39.35;12.63;;;5.20;99.90;;;;;;4995974;28;20509;-81
2024/01/14 00:28:58;;;;;;;34.75;13.27;;;5.10;99.90;;;;;;4995838;28;20390;-79
2024/01/14 00:31:24;;;;;;;32.20;10.60;;;5.10;99.90;;;;;;4995440;28;20383;-81
2024/01/14 00:33:51;;;;;;;32.13;11.32;;;5.20;99.90;;;;;;4991494;28;20491;-80
2024/01/14 00:36:17;;;;;;;35.35;12.35;;;5.10;99.90;;;;;;4995671;28;20368;-80
2024/01/14 00:38:44;;;;;;;27.02;11.50;;;5.10;99.90;;;;;;4994324;28;20124;-82
2024/01/14 00:41:10;;;;;;;33.25;11.52;;;5.20;99.90;;;;;;4991850;28;20031;-81
2024/01/14 00:43:36;;;;;;;30.08;12.63;;;5.10;99.90;;;;;;4995524;28;20109;-81
2024/01/14 00:46:04;;;;;;;25.27;10.25;;;5.00;99.90;;;;;;4994343;28;20062;-81
2024/01/14 00:48:30;;;;;;;27.23;10.07;;;5.10;99.90;;;;;;4995646;28;20033;-81
2024/01/14 00:50:57;;;;;;;28.90;11.65;;;5.10;99.90;;;;;;4995293;28;20980;-82
2024/01/14 00:53:24;;;;;;;31.90;10.40;;;5.20;99.90;;;;;;4995608;28;20022;-83
2024/01/14 00:55:50;;;;;;;32.97;12.13;;;5.20;99.90;;;;;;4993480;28;20033;-82
2024/01/14 00:58:16;;;;;;;29.63;10.98;;;5.10;99.90;;;;;;4993980;28;20475;-82
2024/01/14 01:00:42;;;;;;;33.08;12.63;;;5.10;99.90;;;;;;4994029;28;20018;-82
2024/01/14 01:03:08;;;;;;;35.83;12.23;;;5.20;99.90;;;;;;4995054;28;20102;-82
2024/01/14 01:05:34;;;;;;;27.40;11.77;;;5.20;99.90;;;;;;4995252;28;20116;-82
2024/01/14 01:08:01;;;;;;;32.65;11.32;;;5.10;99.90;;;;;;4993574;28;20029;-82
2024/01/14 01:10:26;;;;;;;38.70;14.05;;;5.10;99.90;;;;;;4994819;28;20459;-82
2024/01/14 01:12:53;;;;;;;40.25;13.38;;;5.10;99.90;;;;;;4994629;28;20015;-82
2024/01/14 01:15:19;;;;;;;35.65;12.77;;;5.10;99.90;;;;;;4994968;28;20026;-84
2024/01/14 01:17:44;;;;;;;34.40;11.98;;;5.10;99.90;;;;;;4993622;28;20022;-79
2024/01/14 01:20:11;;;;;;;39.42;14.07;;;5.10;99.90;;;;;;4994624;28;20030;-81
2024/01/14 01:22:37;;;;;;;33.95;13.15;;;5.10;99.90;;;;;;4993515;28;20087;-79
2024/01/14 01:25:03;;;;;;;35.55;11.98;;;5.10;99.90;;;;;;4994373;28;20026;-79
2024/01/14 01:27:29;;;;;;;38.83;14.32;;;5.10;99.90;;;;;;4993954;28;20498;-88
2024/01/14 01:29:58;;;;;;;38.00;13.70;;;5.10;99.90;;;;;;4994936;28;20015;-83
2024/01/14 01:32:24;;;;;;;43.97;13.52;;;5.00;99.90;;;;;;4992998;28;20029;-82
2024/01/14 01:34:49;;;;;;;33.20;13.70;;;5.00;99.90;;;;;;4992873;28;20026;-83
2024/01/14 01:37:15;;;;;;;37.78;12.15;;;5.10;99.90;;;;;;4994567;28;20022;-84
2024/01/14 01:39:41;;;;;;;33.42;12.48;;;5.10;99.90;;;;;;4994885;28;20029;-84
2024/01/14 01:42:07;;;;;;;37.90;12.93;;;5.20;99.90;;;;;;4994251;28;20086;-85
2024/01/14 01:44:35;;;;;;;45.55;14.30;;;5.20;99.90;;;;;;4994080;28;20403;-85
2024/01/14 01:47:02;;;;;;;40.10;12.95;;;5.00;99.90;;;;;;4994243;28;20029;-85
2024/01/14 01:49:31;;;;;;;32.28;13.07;;;5.00;99.90;;;;;;4993832;28;20034;-85
2024/01/14 01:51:59;;;;;;;35.00;13.25;;;5.00;99.90;;;;;;4992548;28;20046;-86
2024/01/14 01:54:26;;;;;;;31.60;13.45;;;5.00;99.90;;;;;;4992676;28;20045;-85
2024/01/14 01:56:53;;;;;;;38.05;13.32;;;4.90;99.90;;;;;;4993007;28;20034;-84
2024/01/14 01:59:20;;;;;;;31.27;12.25;;;4.90;99.90;;;;;;4993424;28;20038;-89
2024/01/14 02:01:46;;;;;;;29.20;12.38;;;4.80;99.90;;;;;;4993053;28;20102;-85
2024/01/14 02:04:13;;;;;;;30.98;11.77;;;4.80;99.90;;;;;;4993550;28;20019;-85
2024/01/14 02:06:40;;;;;;;31.92;13.32;;;4.90;99.90;;;;;;4992981;28;20038;-85
2024/01/14 02:09:08;;;;;;;36.33;12.93;;;4.80;99.90;;;;;;4994281;28;20522;-85
2024/01/14 02:11:35;;;;;;;35.40;13.80;;;4.80;99.90;;;;;;4992515;28;20018;-86
2024/01/14 02:14:01;;;;;;;41.92;14.32;;;4.70;99.90;;;;;;4992479;28;20027;-84
2024/01/14 02:16:26;;;;;;;44.80;13.27;;;4.70;99.90;;;;;;4993981;28;20034;-89
2024/01/14 02:18:52;;;;;;;47.58;14.25;;;4.60;99.90;;;;;;4996100;28;20026;-87
2024/01/14 02:21:21;;;;;;;30.83;12.98;;;4.60;99.90;;;;;;4993708;28;20475;-85
2024/01/14 02:23:52;;;;;;;39.58;14.32;;;4.60;99.90;;;;;;4993881;28;20034;-86
2024/01/14 02:26:18;;;;;;;42.42;14.00;;;4.50;99.90;;;;;;4993713;28;20483;-84
2024/01/14 02:28:44;;;;;;;38.40;14.20;;;4.50;99.90;;;;;;4992231;28;20019;-79
2024/01/14 02:31:10;;;;;;;43.50;14.93;;;4.50;99.90;;;;;;4992217;28;20114;-79
2024/01/14 02:33:36;;;;;;;43.08;14.93;;;4.40;99.90;;;;;;4992230;28;20026;-79
2024/01/14 02:36:02;;;;;;;44.17;16.83;;;4.40;99.90;;;;;;4992173;28;20030;-79
2024/01/14 02:38:28;;;;;;;49.80;15.68;;;4.40;99.90;;;;;;4992789;28;20121;-86
2024/01/14 02:40:54;;;;;;;43.25;14.00;;;4.50;99.90;;;;;;4992751;28;20104;-83
2024/01/14 02:43:20;;;;;;;49.55;15.32;;;4.50;99.90;;;;;;4994072;28;20022;-83
2024/01/14 02:45:45;;;;;;;42.30;14.32;;;4.40;99.90;;;;;;4993866;28;20038;-82
2024/01/14 02:48:11;;;;;;;59.25;15.88;;;4.40;99.90;;;;;;4992409;28;20058;-82
2024/01/14 02:50:36;;;;;;;54.72;15.23;;;4.50;99.90;;;;;;4993923;28;20489;-83
2024/01/14 02:53:02;;;;;;;44.58;16.13;;;4.40;99.90;;;;;;4993689;28;20027;-86
2024/01/14 02:55:28;;;;;;;53.50;17.65;;;4.40;99.90;;;;;;4993109;28;20426;-77
2024/01/14 02:57:55;;;;;;;44.75;15.30;;;4.40;99.90;;;;;;4993417;28;20046;-78
2024/01/14 03:00:20;;;;;;;61.10;16.60;;;4.40;99.90;;;;;;4992277;28;20553;-78
2024/01/14 03:02:46;;;;;;;49.05;13.70;;;4.40;99.90;;;;;;4993464;28;20030;-78
2024/01/14 03:05:12;;;;;;;44.25;15.75;;;4.40;99.90;;;;;;4992150;28;20030;-79
2024/01/14 03:07:38;;;;;;;42.63;14.85;;;4.40;99.90;;;;;;4992038;28;20030;-80
2024/01/14 03:10:04;;;;;;;44.10;15.63;;;4.40;99.90;;;;;;4993504;28;20030;-79
2024/01/14 03:12:29;;;;;;;42.40;13.27;;;4.30;99.90;;;;;;4993467;28;20022;-76
2024/01/14 03:14:55;;;;;;;36.22;14.70;;;4.30;99.90;;;;;;4991984;28;20062;-77
2024/01/14 03:17:20;;;;;;;35.85;14.10;;;4.30;99.90;;;;;;4991965;28;20497;-78
2024/01/14 03:19:46;;;;;;;41.80;13.82;;;4.20;99.90;;;;;;4996651;28;20037;-79
2024/01/14 03:22:13;;;;;;;39.53;14.90;;;4.20;99.90;;;;;;4997165;28;20026;-85
2024/01/14 03:24:40;;;;;;;36.30;13.40;;;4.20;99.90;;;;;;4996689;28;20031;-78
2024/01/14 03:27:05;;;;;;;42.15;13.77;;;4.20;99.90;;;;;;4995742;28;20110;-80
2024/01/14 03:29:31;;;;;;;38.00;14.55;;;4.20;99.90;;;;;;4997060;28;20479;-80
2024/01/14 03:31:57;;;;;;;43.63;13.38;;;4.20;99.90;;;;;;4996999;28;20054;-79
2024/01/14 03:34:23;;;;;;;36.90;14.93;;;4.10;99.90;;;;;;4996925;28;20033;-79
2024/01/14 03:36:51;;;;;;;37.22;12.50;;;4.20;99.90;;;;;;4995797;28;20450;-83
2024/01/14 03:39:16;;;;;;;35.03;12.90;;;4.20;99.90;;;;;;4995650;28;20026;-79
2024/01/14 03:41:42;;;;;;;35.90;11.85;;;4.10;99.90;;;;;;4996764;28;20097;-78
2024/01/14 03:44:09;;;;;;;34.03;12.55;;;4.10;99.90;;;;;;4995073;28;20029;-79
2024/01/14 03:46:34;;;;;;;39.15;13.18;;;4.10;99.90;;;;;;4996097;28;20057;-78
2024/01/14 03:49:00;;;;;;;41.22;13.60;;;4.10;99.90;;;;;;4995909;28;20019;-78
2024/01/14 03:51:26;;;;;;;41.47;12.98;;;4.20;99.90;;;;;;4995732;28;20120;-76
2024/01/14 03:53:51;;;;;;;40.40;14.70;;;4.10;99.90;;;;;;4994481;28;20028;-77
2024/01/14 03:56:18;;;;;;;36.13;13.23;;;4.10;99.90;;;;;;4995797;28;20150;-78
2024/01/14 03:58:44;;;;;;;33.53;14.00;;;4.10;99.90;;;;;;4994546;28;20019;-77
2024/01/14 04:01:19;;;;;;;43.20;15.35;;;4.10;99.90;;;;;;4995914;28;20056;-77
2024/01/14 04:03:45;;;;;;;43.35;14.90;;;4.20;99.90;;;;;;4994701;28;20049;-79
2024/01/14 04:06:10;;;;;;;37.80;13.60;;;4.30;99.90;;;;;;4995693;28;20073;-78
2024/01/14 04:08:36;;;;;;;45.78;14.20;;;4.30;99.90;;;;;;4995684;28;20014;-79
2024/01/14 04:11:02;;;;;;;39.75;16.15;;;4.30;99.90;;;;;;4995609;28;20391;-79
2024/01/14 04:13:27;;;;;;;31.75;13.23;;;4.30;99.90;;;;;;4995545;28;20019;-78
2024/01/14 04:15:56;;;;;;;33.63;14.20;;;4.30;99.90;;;;;;4994334;28;20034;-79
2024/01/14 04:18:22;;;;;;;39.38;14.27;;;4.30;99.90;;;;;;4995190;28;20479;-78
2024/01/14 04:20:49;;;;;;;35.58;15.02;;;4.30;99.90;;;;;;4994273;28;20022;-78
2024/01/14 04:23:14;;;;;;;38.60;15.23;;;4.30;99.90;;;;;;4994082;28;20036;-77
2024/01/14 04:25:40;;;;;;;41.47;15.55;;;4.40;99.90;;;;;;4995211;28;20113;-77
2024/01/14 04:28:06;;;;;;;43.95;13.70;;;4.40;99.90;;;;;;4995213;28;20048;-77
2024/01/14 04:30:32;;;;;;;37.45;14.32;;;4.40;99.90;;;;;;4992863;28;20019;-78
2024/01/14 04:32:58;;;;;;;36.67;14.27;;;4.40;99.90;;;;;;4995107;28;20023;-79
2024/01/14 04:35:23;;;;;;;29.85;11.95;;;4.30;99.90;;;;;;4995023;28;20493;-78
2024/01/14 04:37:49;;;;;;;36.50;13.77;;;4.30;99.90;;;;;;4993750;28;20109;-78
2024/01/14 04:40:15;;;;;;;39.92;14.43;;;4.30;99.90;;;;;;4994913;28;20491;-78
2024/01/14 04:42:40;;;;;;;39.20;13.48;;;4.30;99.90;;;;;;4993813;28;20029;-77
2024/01/14 04:45:07;;;;;;;33.67;13.70;;;4.30;99.90;;;;;;4993486;28;20022;-78
2024/01/14 04:47:34;;;;;;;33.70;12.90;;;4.30;99.90;;;;;;4993727;28;20545;-87
2024/01/14 04:49:59;;;;;;;36.70;13.93;;;4.30;99.90;;;;;;4994981;28;20058;-86
2024/01/14 04:52:25;;;;;;;36.00;13.65;;;4.20;99.90;;;;;;4993485;28;20076;-87
2024/01/14 04:54:51;;;;;;;32.35;13.25;;;4.30;99.90;;;;;;4995081;28;20022;-86
2024/01/14 04:57:16;;;;;;;33.95;13.90;;;4.30;99.90;;;;;;4994920;28;20034;-80
2024/01/14 04:59:42;;;;;;;37.97;13.60;;;4.30;99.90;;;;;;4994702;28;20397;-80
2024/01/14 05:02:07;;;;;;;30.88;12.10;;;4.30;99.90;;;;;;4994548;28;20026;-80
2024/01/14 05:04:33;;;;;;;28.90;13.23;;;4.30;99.90;;;;;;4994549;28;20034;-79
2024/01/14 05:06:59;;;;;;;38.35;12.98;;;4.30;99.90;;;;;;4994440;28;20502;-80
2024/01/14 05:09:25;;;;;;;34.20;12.80;;;4.30;99.90;;;;;;4993171;28;20475;-79
2024/01/14 05:11:50;;;;;;;37.17;13.68;;;4.30;99.90;;;;;;4994750;28;20014;-81
2024/01/14 05:14:16;;;;;;;32.53;11.43;;;4.30;99.90;;;;;;4994409;28;20537;-80
2024/01/14 05:16:42;;;;;;;31.77;12.90;;;4.30;99.90;;;;;;4992976;28;20030;-79
2024/01/14 05:19:08;;;;;;;28.30;12.88;;;4.20;99.90;;;;;;4994158;28;20022;-79
2024/01/14 05:21:34;;;;;;;40.70;13.45;;;4.30;99.90;;;;;;4994344;28;20037;-79
2024/01/14 05:24:00;;;;;;;31.88;12.15;;;4.20;99.90;;;;;;4992969;28;20026;-80
2024/01/14 05:26:25;;;;;;;35.55;12.60;;;4.20;99.90;;;;;;4994061;28;20490;-80
2024/01/14 05:28:51;;;;;;;35.75;13.77;;;4.20;99.90;;;;;;4992761;28;20068;-80
2024/01/14 05:31:17;;;;;;;40.38;14.15;;;4.20;99.90;;;;;;4994127;28;20029;-80
2024/01/14 05:33:43;;;;;;;36.50;13.27;;;4.20;99.90;;;;;;4994202;28;20364;-79
2024/01/14 05:36:08;;;;;;;40.45;13.05;;;4.20;99.90;;;;;;4992753;28;20026;-80
2024/01/14 05:38:34;;;;;;;34.42;13.52;;;4.20;99.90;;;;;;4994064;28;20037;-79
2024/01/14 05:41:00;;;;;;;41.05;13.82;;;4.20;99.90;;;;;;4992411;28;20041;-79
2024/01/14 05:43:25;;;;;;;39.28;14.38;;;4.10;99.90;;;;;;4992864;28;20022;-80
2024/01/14 05:45:51;;;;;;;44.50;15.02;;;4.10;99.90;;;;;;4993895;28;20511;-80
2024/01/14 05:48:18;;;;;;;32.50;13.02;;;4.10;99.90;;;;;;4992466;28;20117;-80
2024/01/14 05:50:44;;;;;;;37.65;13.43;;;4.10;99.90;;;;;;4993650;28;20498;-79
2024/01/14 05:53:10;;;;;;;40.95;15.63;;;4.10;99.90;;;;;;4992230;28;20125;-80
2024/01/14 05:55:36;;;;;;;33.13;13.57;;;4.10;99.90;;;;;;4992529;28;20074;-80
2024/01/14 05:58:01;;;;;;;30.65;11.98;;;4.10;99.90;;;;;;4993777;28;20030;-80
2024/01/14 06:00:27;;;;;;;40.05;14.75;;;4.10;99.90;;;;;;4993672;28;20030;-81
2024/01/14 06:02:52;;;;;;;37.83;15.30;;;4.10;99.90;;;;;;4993581;28;20030;-81
2024/01/14 06:05:18;;;;;;;42.80;14.07;;;4.00;99.90;;;;;;5007169;28;20073;-81
2024/01/14 06:07:45;;;;;;;38.30;13.65;;;3.90;99.90;;;;;;4992368;28;20495;-80
2024/01/14 06:10:11;;;;;;;39.72;13.45;;;3.90;99.90;;;;;;4993658;28;20026;-80
2024/01/14 06:12:38;;;;;;;33.67;13.55;;;3.90;99.90;;;;;;4992439;28;20157;-80
2024/01/14 06:15:05;;;;;;;41.08;14.48;;;3.90;99.90;;;;;;4993694;28;20030;-79
2024/01/14 06:17:31;;;;;;;41.92;13.55;;;3.90;99.90;;;;;;4992359;28;20046;-79
2024/01/14 06:19:56;;;;;;;42.55;14.20;;;3.90;99.90;;;;;;4992622;28;20034;-79
2024/01/14 06:22:22;;;;;;;31.70;13.85;;;3.90;99.90;;;;;;4994071;28;20032;-79
2024/01/14 06:24:47;;;;;;;39.33;13.88;;;3.90;99.90;;;;;;4994188;28;20035;-80
2024/01/14 06:27:13;;;;;;;39.38;14.38;;;3.90;99.90;;;;;;4992874;28;20022;-79
2024/01/14 06:29:40;;;;;;;43.42;15.07;;;3.90;99.90;;;;;;4992900;28;20454;-80
2024/01/14 06:32:06;;;;;;;41.95;14.48;;;3.90;99.90;;;;;;4993985;28;20030;-80
2024/01/14 06:34:31;;;;;;;44.22;14.73;;;3.90;99.90;;;;;;4993219;28;20042;-80
2024/01/14 06:36:57;;;;;;;34.33;12.95;;;3.90;99.90;;;;;;4993626;28;20041;-79
2024/01/14 06:39:22;;;;;;;39.17;15.20;;;3.90;99.90;;;;;;4993490;28;20022;-79
2024/01/14 06:41:48;;;;;;;39.47;14.50;;;3.90;99.90;;;;;;4993364;28;20030;-80
2024/01/14 06:44:14;;;;;;;36.85;13.43;;;3.80;99.90;;;;;;4992027;28;20398;-79
2024/01/14 06:46:43;;;;;;;37.50;13.82;;;3.90;99.90;;;;;;4993277;28;20042;-80
2024/01/14 06:49:09;;;;;;;41.00;14.88;;;3.90;99.90;;;;;;4993170;28;20058;-79
2024/01/14 06:51:42;;;;;;;37.38;13.20;;;3.90;99.90;;;;;;4991738;28;20043;-79
2024/01/14 06:54:08;;;;;;;45.55;15.23;;;3.90;99.90;;;;;;4996071;28;20027;-80
2024/01/14 06:56:33;;;;;;;42.38;15.07;;;3.90;99.90;;;;;;4997102;28;20038;-81
2024/01/14 06:58:59;;;;;;;39.28;13.70;;;3.90;99.90;;;;;;4996991;28;20441;-80
2024/01/14 07:01:25;;;;;;;36.90;13.50;;;3.80;99.90;;;;;;4996793;28;20132;-78
2024/01/14 07:03:50;;;;;;;43.22;15.50;;;3.80;99.90;;;;;;4995510;28;20031;-79
2024/01/14 07:06:16;;;;;;;43.05;15.13;;;3.80;99.90;;;;;;4996718;28;20030;-79
2024/01/14 07:08:43;;;;;;;36.80;13.90;;;3.80;99.90;;;;;;4995651;28;20479;-79
2024/01/14 07:11:09;;;;;;;37.65;13.63;;;3.80;99.90;;;;;;4996791;28;20019;-80
2024/01/14 07:13:34;;;;;;;40.45;14.48;;;3.80;99.90;;;;;;4995379;28;20394;-79
2024/01/14 07:16:00;;;;;;;45.55;14.38;;;3.70;99.90;;;;;;4996745;28;20034;-79
2024/01/14 07:18:26;;;;;;;35.67;13.82;;;3.80;99.90;;;;;;4997164;28;20030;-79
2024/01/14 07:20:51;;;;;;;46.17;14.13;;;3.70;99.90;;;;;;4992978;28;20034;-80
2024/01/14 07:23:17;;;;;;;48.42;14.05;;;3.80;99.90;;;;;;4995528;28;20042;-81
2024/01/14 07:25:43;;;;;;;48.03;15.93;;;3.80;99.90;;;;;;4996986;28;20030;-80
2024/01/14 07:28:09;;;;;;;45.70;15.75;;;3.90;99.90;;;;;;4997126;28;20077;-79
2024/01/14 07:30:35;;;;;;;40.92;14.82;;;3.80;99.90;;;;;;4995214;28;20164;-79
2024/01/14 07:33:01;;;;;;;47.67;15.88;;;3.80;99.90;;;;;;4996485;28;20446;-79
2024/01/14 07:35:26;;;;;;;45.08;14.80;;;3.80;99.90;;;;;;4995009;28;20034;-80
2024/01/14 07:37:52;;;;;;;48.28;15.57;;;3.80;99.90;;;;;;4996674;28;20069;-79
2024/01/14 07:40:19;;;;;;;44.33;14.65;;;3.80;99.90;;;;;;4995392;28;20056;-79
2024/01/14 07:42:45;;;;;;;37.17;12.10;;;3.80;99.90;;;;;;4994939;28;20080;-79
2024/01/14 07:45:12;;;;;;;37.13;14.25;;;3.80;99.90;;;;;;4995059;28;20054;-79
2024/01/14 07:47:38;;;;;;;42.55;14.55;;;3.80;99.90;;;;;;4996773;28;20501;-79
2024/01/14 07:50:04;;;;;;;41.30;14.43;;;3.80;99.90;;;;;;4996661;28;20418;-80
2024/01/14 07:52:30;;;;;;;41.38;14.32;;;3.90;99.90;;;;;;4995921;28;20054;-80
2024/01/14 07:54:56;;;;;;;41.28;13.95;;;3.90;99.90;;;;;;4996126;28;20057;-79
2024/01/14 07:57:21;;;;;;;38.95;14.45;;;3.90;99.90;;;;;;4996129;28;20403;-80
2024/01/14 07:59:47;;;;;;;50.50;14.07;;;3.90;99.90;;;;;;4994768;28;20054;-79
2024/01/14 08:02:14;;;;;;;42.97;13.70;;;3.90;99.90;;;;;;4994863;28;20018;-80
2024/01/14 08:04:40;;;;;;;38.20;14.00;;;3.90;99.90;;;;;;5007969;28;20056;-80
2024/01/14 08:07:06;;;;;;;35.90;12.85;;;3.80;99.90;;;;;;4994740;28;20069;-80
2024/01/14 08:09:31;;;;;;;46.65;14.38;;;3.90;99.90;;;;;;4994620;28;20022;-79
2024/01/14 08:11:57;;;;;;;37.78;13.25;;;3.80;99.90;;;;;;4995826;28;20391;-79
2024/01/14 08:14:23;;;;;;;39.65;14.82;;;3.80;99.90;;;;;;4995706;28;20394;-79
2024/01/14 08:16:49;;;;;;;47.72;14.57;;;3.80;99.90;;;;;;4994493;28;20065;-79
2024/01/14 08:19:15;;;;;;;39.53;13.85;;;3.90;99.90;;;;;;4995541;28;20031;-79
2024/01/14 08:21:44;;;;;;;36.38;12.93;;;3.90;99.90;;;;;;4995511;28;20093;-80
2024/01/14 08:24:12;;;;;;;38.65;13.48;;;3.90;99.90;;;;;;4994512;28;20026;-79
2024/01/14 08:26:45;;;;;;;39.73;13.90;;;3.90;99.90;;;;;;4995831;28;20030;-85
2024/01/14 08:29:13;;;;;;;40.83;13.00;;;4.00;99.90;;;;;;4994413;28;20041;-84
2024/01/14 08:31:40;;;;;;;46.77;12.13;;;4.00;99.90;;;;;;4994488;28;20394;-86
2024/01/14 08:34:07;;;;;;;37.78;14.23;;;4.00;99.90;;;;;;4995586;28;20026;-86
2024/01/14 08:36:34;;;;;;;35.83;12.03;;;4.00;99.90;;;;;;4995425;28;20026;-84
2024/01/14 08:38:59;;;;;;;35.55;13.23;;;4.00;99.90;;;;;;4995389;28;20352;-86
2024/01/14 08:41:26;;;;;;;41.67;13.70;;;4.00;99.90;;;;;;4995476;28;20484;-85
2024/01/14 08:43:52;;;;;;;41.22;13.23;;;4.10;99.90;;;;;;4996253;28;20383;-86
2024/01/14 08:46:17;;;;;;;35.85;13.15;;;4.10;99.90;;;;;;4994478;28;20025;-85
2024/01/14 08:48:43;;;;;;;41.90;13.45;;;4.20;99.90;;;;;;4994922;28;20076;-86
2024/01/14 08:51:12;;;;;;;37.13;14.18;;;4.10;99.90;;;;;;4995029;28;20091;-85
2024/01/14 08:53:38;;;;;;;38.55;15.18;;;4.10;99.90;;;;;;4993974;28;20041;-84
2024/01/14 08:56:04;;;;;;;46.90;14.63;;;4.20;99.90;;;;;;4993991;28;20022;-85
2024/01/14 08:58:29;;;;;;;39.80;13.55;;;4.10;99.90;;;;;;4994994;28;20109;-85
2024/01/14 09:00:55;;;;;;;42.45;13.57;;;4.10;99.90;;;;;;4995108;28;20501;-84
2024/01/14 09:03:21;;;;;;;36.92;12.45;;;4.20;99.90;;;;;;4997450;28;20120;-84
2024/01/14 09:05:47;;;;;;;41.15;12.48;;;4.20;99.90;;;;;;5003224;28;20117;-84
2024/01/14 09:08:16;;;;;;;38.30;14.40;;;4.30;99.90;;;;;;4993507;28;20066;-86
2024/01/14 09:10:43;;;;;;;37.38;12.90;;;4.30;99.90;;;;;;4993322;28;20030;-85
2024/01/14 09:13:09;;;;;;;39.03;13.57;;;4.30;99.90;;;;;;4994607;28;20015;-85
2024/01/14 09:15:34;;;;;;;35.72;11.95;;;4.40;99.90;;;;;;4989822;28;20044;-84
2024/01/14 09:18:00;;;;;;;37.03;13.75;;;4.40;99.90;;;;;;4994219;28;20113;-85
2024/01/14 09:20:26;;;;;;;43.78;13.55;;;4.40;99.90;;;;;;4995039;28;20069;-85
2024/01/14 09:22:52;;;;;;;32.90;12.68;;;4.40;99.90;;;;;;4994982;28;20054;-84
2024/01/14 09:25:17;;;;;;;37.70;12.43;;;4.50;99.90;;;;;;4994665;28;20070;-85
2024/01/14 09:27:43;;;;;;;36.72;13.60;;;4.50;99.90;;;;;;4995062;28;20018;-78
2024/01/14 09:30:12;;;;;;;40.58;13.98;;;4.50;99.90;;;;;;4994362;28;20029;-79
2024/01/14 09:32:38;;;;;;;40.80;14.18;;;4.50;99.90;;;;;;4993062;28;20057;-84
2024/01/14 09:35:04;;;;;;;33.80;13.60;;;4.60;99.90;;;;;;4994709;28;20062;-84
2024/01/14 09:37:30;;;;;;;39.63;14.15;;;4.60;99.90;;;;;;4994906;28;20076;-78
2024/01/14 09:39:55;;;;;;;41.97;14.73;;;4.60;99.90;;;;;;4994550;28;20435;-78
2024/01/14 09:42:35;;;;;;;37.15;14.70;;;4.50;99.90;;;;;;4994621;28;20022;-78
2024/01/14 09:45:02;;;;;;;39.10;13.52;;;4.50;99.90;;;;;;4994470;28;20053;-79
2024/01/14 09:47:31;;;;;;;40.33;15.57;;;4.60;99.90;;;;;;4992577;28;20545;-79
2024/01/14 09:49:59;;;;;;;38.72;13.52;;;4.50;99.90;;;;;;4993656;28;20034;-79
2024/01/14 09:52:25;;;;;;;;;;;4.50;99.90;;;;;;4974848;28;20050;-79
2024/01/14 09:54:51;;;;;;;38.83;13.27;;;4.50;99.90;;;;;;4981797;28;19906;-79
2024/01/14 09:57:20;;;;;;;40.63;13.57;;;4.50;99.90;;;;;;4992654;28;20115;-79
2024/01/14 09:59:49;;;;;;;37.47;13.32;;;4.50;99.90;;;;;;4994139;28;20026;-79
2024/01/14 10:02:15;;;;;;;33.38;11.88;;;4.50;99.90;;;;;;4993726;28;20033;-80
2024/01/14 10:04:41;;;;;;;31.50;13.60;;;4.40;99.90;;;;;;5006002;28;20022;-79
2024/01/14 10:07:11;;;;;;;47.78;13.40;;;4.40;99.90;;;;;;4992289;28;20495;-80
2024/01/14 10:09:39;;;;;;;36.17;13.40;;;4.50;99.90;;;;;;4993744;28;20030;-79
2024/01/14 10:12:07;;;;;;;;;;;4.50;99.90;;;;;;4994097;28;20019;-78
2024/01/14 10:14:34;;;;;;;35.10;11.82;;;4.60;99.90;;;;;;4993595;28;19997;-77
2024/01/14 10:17:00;;;;;;;40.22;13.32;;;4.50;99.90;;;;;;5002678;28;20026;-76
2024/01/14 10:19:27;;;;;;;36.17;13.98;;;4.50;99.90;;;;;;5005585;28;20368;-76
2024/01/14 10:21:54;;;;;;;36.78;13.57;;;4.50;99.90;;;;;;5002636;28;20081;-79
2024/01/14 10:24:24;;;;;;;42.78;13.45;;;4.50;99.90;;;;;;5003369;28;20038;-77
2024/01/14 10:26:54;;;;;;;35.42;12.80;;;4.50;99.90;;;;;;5007491;28;20084;-77
2024/01/14 10:29:20;;;;;;;35.35;13.40;;;4.50;99.90;;;;;;5006130;28;20574;-76
2024/01/14 10:31:47;;;;;;;40.28;13.80;;;4.60;99.90;;;;;;5012909;28;20022;-76
2024/01/14 10:34:13;;;;;;;36.20;13.00;;;4.60;99.90;;;;;;5008304;28;20032;-75
2024/01/14 10:36:38;;;;;;;29.30;13.32;;;4.60;99.90;;;;;;5010822;28;20022;-77
2024/01/14 10:39:07;;;;;;;33.85;13.10;;;4.60;99.90;;;;;;5022230;28;20041;-83
2024/01/14 10:41:33;;;;;;;32.28;12.82;;;4.60;99.90;;;;;;5020273;28;20030;-79
2024/01/14 10:44:00;;;;;;;36.03;13.38;;;4.60;99.90;;;;;;5006144;28;20113;-84
2024/01/14 10:46:38;;;;;;;32.67;11.82;;;4.60;99.90;;;;;;4999859;28;20080;-87
2024/01/14 10:49:08;;;;;;;34.22;13.25;;;4.60;99.90;;;;;;4997055;28;20323;-76
2024/01/14 10:51:39;;;;;;;34.65;13.73;;;4.70;99.90;;;;;;4996905;28;20093;-75
2024/01/14 10:54:33;;;;;;;31.45;12.55;;;4.70;99.90;;;;;;4995812;28;20105;-76
2024/01/14 10:57:05;;;;;;;38.17;12.15;;;4.70;99.90;;;;;;4996922;28;20470;-76
2024/01/14 10:59:37;;;;;;;38.53;13.10;;;4.70;99.90;;;;;;4996976;28;20023;-76
2024/01/14 11:02:15;;;;;;;45.05;14.05;;;4.70;99.90;;;;;;4997344;28;20042;-77
2024/01/14 11:04:44;;;;;;;35.72;14.50;;;4.70;99.90;;;;;;5010612;28;20368;-76
2024/01/14 11:07:10;;;;;;;34.08;13.95;;;4.60;99.90;;;;;;4996040;28;20558;-77
2024/01/14 11:09:38;;;;;;;44.03;14.50;;;4.50;99.90;;;;;;4996039;28;20318;-78
2024/01/14 11:12:14;;;;;;;40.17;13.50;;;4.60;99.90;;;;;;4995577;28;20022;-76
2024/01/14 11:15:04;;;;;;;39.53;14.75;;;4.50;99.90;;;;;;4996785;28;20035;-77
2024/01/14 11:17:33;;;;;;;32.20;11.63;;;4.50;99.90;;;;;;4996913;28;20486;-77
2024/01/14 11:20:00;;;;;;;51.22;14.65;;;4.60;99.90;;;;;;4996653;28;20156;-77
2024/01/14 11:22:26;;;;;;;42.63;14.30;;;4.60;99.90;;;;;;4996812;28;20022;-77
2024/01/14 11:24:53;;;;;;;42.05;14.32;;;4.60;99.90;;;;;;4996330;28;20125;-77
2024/01/14 11:27:18;;;;;;;39.10;14.75;;;4.70;99.90;;;;;;4995328;28;20022;-78
2024/01/14 11:29:44;;;;;;;48.78;15.10;;;4.60;99.90;;;;;;4995408;28;20026;-77
2024/01/14 11:32:12;;;;;;;43.30;14.40;;;4.60;99.90;;;;;;4995093;28;20029;-76
2024/01/14 11:34:47;;;;;;;44.35;12.65;;;4.70;99.90;;;;;;4995449;28;20173;-76
2024/01/14 11:37:41;;;;;;;41.63;14.70;;;4.70;99.90;;;;;;4995404;28;20479;-78
2024/01/14 11:40:06;;;;;;;40.08;13.85;;;4.60;99.90;;;;;;4994859;28;20026;-75
2024/01/14 11:42:36;;;;;;;46.53;14.65;;;4.70;99.90;;;;;;4996663;28;20057;-76
2024/01/14 11:45:12;;;;;;;40.10;14.77;;;4.80;99.90;;;;;;4995509;28;20026;-76
2024/01/14 11:47:43;;;;;;;48.58;14.75;;;4.80;99.90;;;;;;4998606;28;20065;-83
2024/01/14 11:50:10;;;;;;;46.05;14.70;;;5.00;99.90;;;;;;5007361;28;20052;-83
2024/01/14 11:52:38;;;;;;;40.10;13.77;;;5.10;99.90;;;;;;4998868;28;20038;-82
2024/01/14 11:55:05;;;;;;;34.75;13.00;;;5.20;99.90;;;;;;5002249;28;20037;-83
2024/01/14 11:57:32;;;;;;;42.53;12.93;;;5.20;99.90;;;;;;4999440;28;20105;-78
2024/01/14 11:59:58;;;;;;;38.47;13.25;;;5.30;99.90;;;;;;4994634;28;20042;-79
2024/01/14 12:02:23;;;;;;;37.78;12.60;;;5.30;99.90;;;;;;5005266;28;20022;-78
2024/01/14 12:04:51;;;;;;;32.90;11.95;;;5.30;99.90;;;;;;5013179;28;20120;-79
2024/01/14 12:07:24;;;;;;;26.42;11.05;;;5.20;99.90;;;;;;4994381;28;20034;-79
2024/01/14 12:09:55;;;;;;;34.28;12.85;;;5.30;99.90;;;;;;4995699;28;20471;-80
2024/01/14 12:12:27;;;;;;;34.33;12.32;;;5.30;99.90;;;;;;4995664;28;20066;-79
2024/01/14 12:14:52;;;;;;;32.58;10.90;;;5.30;99.90;;;;;;4995670;28;20030;-79
2024/01/14 12:17:18;;;;;;;31.13;11.07;;;5.30;99.90;;;;;;4995592;28;20022;-78
2024/01/14 12:19:58;;;;;;;28.35;10.27;;;5.30;99.90;;;;;;4994290;28;20050;-78
2024/01/14 12:22:23;;;;;;;26.85;10.50;;;5.40;99.90;;;;;;4995451;28;20026;-78
2024/01/14 12:24:49;;;;;;;38.95;13.10;;;5.30;99.90;;;;;;4994140;28;20026;-77
2024/01/14 12:27:15;;;;;;;26.17;10.20;;;5.30;99.90;;;;;;4994258;28;20027;-79
2024/01/14 12:29:41;;;;;;;31.52;11.63;;;5.30;99.90;;;;;;4993901;28;20173;-78
2024/01/14 12:32:07;;;;;;;35.28;11.68;;;5.30;99.90;;;;;;4995387;28;20490;-78
2024/01/14 12:34:33;;;;;;;30.90;11.13;;;5.30;99.90;;;;;;4994023;28;20105;-79
2024/01/14 12:36:59;;;;;;;30.65;12.13;;;5.20;99.90;;;;;;4995131;28;20483;-79